Catàleg de serveis del Meteocat
Campanya meteocatpedra

Dades de l'estació automàtica Sant Pau de Segúries

?
?
Resum diari 22:30 TU
Dades diàries de l'estació meteorològica
Temperatura mitjana 3.7 °C
Temperatura màxima 10.4 °C 12:48 TU
Temperatura mínima -2.3 °C 2:08 TU
Humitat relativa mitjana 85%
Precipitació acumulada 0.0 mm
Ratxa màxima del vent (10 m) 21.2 km/h - 253º 11:13 TU
Pressió atmosfèrica mitjana 1007.7 hPa

El tram horari està expressat en Temps Universal (TU). Cal sumar una hora en horari d'hivern i dues en horari d'estiu per passar a l'hora oficial.

Sant Pau de Segúries

Metadades estació meteorol´gica
Municipi Sant Pau de Segúries
Comarca Ripollès
Altitud 852 m
Data alta 24.11.1995
Estat actual Operativa
Dades de període
Període
TU
TM
°C
TX
°C
TN
°C
HRM
%
PPT
mm
VVM (10 m)
km/h
DVM (10 m)
graus
VVX (10 m)
km/h
PM
hPa
00:00 - 00:30 -1.4 -1.1 -1.7 98 0.0 1.1 210 3.2 1008.8
00:30 - 01:00 -2.0 -1.7 -2.2 98 0.0 0.4 182 2.9 1008.8
01:00 - 01:30 -2.0 -1.8 -2.3 98 0.0 0.7 155 4.0 1008.6
01:30 - 02:00 -1.9 -1.7 -2.2 97 0.0 1.8 162 6.5 1008.2
02:00 - 02:30 -2.1 -1.9 -2.3 98 0.0 0.7 191 4.0 1008.5
02:30 - 03:00 -1.2 -0.2 -2.1 95 0.0 2.5 105 9.7 1008.0
03:00 - 03:30 -0.2 0.0 -0.6 87 0.0 5.0 77 10.8 1007.6
03:30 - 04:00 -0.2 -0.1 -0.4 87 0.0 6.1 69 11.5 1007.8
04:00 - 04:30 -0.1 0.2 -0.3 85 0.0 4.7 78 10.8 1007.9
04:30 - 05:00 0.1 0.4 -0.4 84 0.0 6.1 58 11.2 1007.6
05:00 - 05:30 0.4 0.6 0.1 83 0.0 4.0 92 10.1 1007.4
05:30 - 06:00 0.6 0.9 0.4 82 0.0 5.0 79 10.1 1007.3
06:00 - 06:30 0.5 0.6 0.3 83 0.0 4.3 78 8.6 1007.6
06:30 - 07:00 0.1 0.6 -0.7 86 0.0 2.2 126 7.2 1008.1
07:00 - 07:30 -0.6 0.2 -0.9 93 0.0 1.4 148 6.5 1008.7
07:30 - 08:00 0.8 1.3 0.3 86 0.0 3.2 85 7.9 1008.2
08:00 - 08:30 1.9 2.2 1.4 81 0.0 2.9 90 9.7 1008.3
08:30 - 09:00 2.6 3.1 2.2 79 0.0 1.4 55 7.2 1008.2
09:00 - 09:30 3.0 3.2 2.8 81 0.0 2.2 242 6.1 1008.2
09:30 - 10:00 3.0 3.7 2.7 83 0.0 2.9 240 10.1 1008.3
10:00 - 10:30 5.0 5.8 3.8 76 0.0 5.8 234 14.8 1007.7
10:30 - 11:00 6.4 6.9 5.7 73 0.0 9.0 249 18.0 1007.1
11:00 - 11:30 6.7 7.0 6.5 72 0.0 9.4 246 21.2 1007.0
11:30 - 12:00 7.8 8.9 7.0 70 0.0 7.9 241 18.7 1006.1
12:00 - 12:30 9.4 9.7 8.9 66 0.0 7.6 245 18.7 1005.1
12:30 - 13:00 10.0 10.4 9.6 63 0.0 7.6 217 16.6 1004.8
13:00 - 13:30 9.6 10.1 9.2 63 0.0 5.4 188 14.8 1004.9
13:30 - 14:00 9.4 9.8 8.7 66 0.0 4.7 168 12.6 1005.0
14:00 - 14:30 8.7 8.9 8.5 72 0.0 6.5 147 15.1 1005.5
14:30 - 15:00 8.5 8.8 8.2 73 0.0 5.0 126 11.5 1005.6
15:00 - 15:30 8.0 8.2 7.8 79 0.0 2.2 159 7.9 1006.1
15:30 - 16:00 7.5 7.8 7.4 82 0.0 3.6 52 7.9 1007.0
16:00 - 16:30 7.1 7.3 6.8 84 0.0 4.7 32 9.4 1007.0
16:30 - 17:00 6.6 6.9 6.5 87 0.0 3.6 34 8.6 1007.7
17:00 - 17:30 6.3 6.6 6.2 89 0.0 2.2 37 7.2 1008.4
17:30 - 18:00 6.3 6.3 6.2 90 0.0 2.9 356 8.6 1008.5
18:00 - 18:30 6.0 6.2 5.9 90 0.0 5.0 45 10.1 1008.6
18:30 - 19:00 5.9 6.0 5.7 91 0.0 1.4 262 5.8 1009.1
19:00 - 19:30 4.7 5.6 4.4 94 0.0 1.4 69 5.0 1009.7
19:30 - 20:00 4.9 5.1 4.6 94 0.0 2.9 39 7.6 1009.4
20:00 - 20:30 5.0 5.1 4.9 93 0.0 2.2 27 5.0 1009.2
20:30 - 21:00 4.1 4.9 3.6 95 0.0 1.1 146 2.9 1009.2
21:00 - 21:30 3.7 4.0 3.5 98 0.0 1.8 248 5.0 1009.1
21:30 - 22:00 4.0 4.1 3.9 98 0.0 2.5 230 8.6 1008.6
22:00 - 22:30 3.8 3.9 3.7 98 0.0 5.4 251 13.0 1008.3
22:30 - 23:00 3.7 3.8 3.7 97 0.0 7.6 255 17.6 1008.2

Les dades en taronja només han passat un control de qualitat automàtic. Resta pendent la seva validació definitiva.